createdAt,value
2023-02-01T00:01:41.152Z,97354.03
2023-02-01T00:04:10.002Z,97355.69
2023-02-01T00:06:37.558Z,97348.69
2023-02-01T00:09:05.410Z,97352.84
2023-02-01T00:11:32.980Z,97332.91
2023-02-01T00:14:00.540Z,97343.47
2023-02-01T00:16:30.138Z,97350.09
2023-02-01T00:19:00.624Z,97332.06
2023-02-01T00:21:29.842Z,97340.72
2023-02-01T00:23:57.572Z,97342.50
2023-02-01T00:26:29.102Z,97341.44
2023-02-01T00:28:56.723Z,97338.94
2023-02-01T00:31:24.338Z,97345.59
2023-02-01T00:33:52.304Z,97327.16
2023-02-01T00:36:20.070Z,97334.19
2023-02-01T00:38:48.946Z,97344.25
2023-02-01T00:41:17.903Z,97322.28
2023-02-01T00:43:46.309Z,97329.88
2023-02-01T00:46:15.391Z,97321.19
2023-02-01T00:48:43.189Z,97322.75
2023-02-01T00:51:12.679Z,97308.16
2023-02-01T00:53:40.384Z,97318.47
2023-02-01T00:56:10.144Z,97314.22
2023-02-01T00:58:37.790Z,97307.22
2023-02-01T01:01:06.933Z,97312.31
2023-02-01T01:03:35.337Z,97320.47
2023-02-01T01:06:05.150Z,97311.94
2023-02-01T01:08:32.631Z,97312.06
2023-02-01T01:11:00.155Z,97313.72
2023-02-01T01:13:29.016Z,97322.13
2023-02-01T01:15:56.546Z,97315.00
2023-02-01T01:18:24.127Z,97320.22
2023-02-01T01:20:51.631Z,97322.97
2023-02-01T01:23:19.360Z,97320.78
2023-02-01T01:25:46.870Z,97317.38
2023-02-01T01:28:14.387Z,97324.38
2023-02-01T01:30:43.350Z,97320.94
2023-02-01T01:33:10.867Z,97321.19
2023-02-01T01:35:38.412Z,97311.19
2023-02-01T01:38:06.091Z,97330.19
2023-02-01T01:40:34.063Z,97313.09
2023-02-01T01:43:01.605Z,97314.75
2023-02-01T01:45:30.878Z,97312.72
2023-02-01T01:48:02.008Z,97309.16
2023-02-01T01:50:31.328Z,97313.56
2023-02-01T01:53:01.348Z,97313.31
2023-02-01T01:55:30.061Z,97309.88
2023-02-01T01:58:01.669Z,97291.69
2023-02-01T02:00:29.260Z,97298.00
2023-02-01T02:03:00.943Z,97292.41
2023-02-01T02:05:29.627Z,97287.06
2023-02-01T02:08:01.908Z,97288.97
2023-02-01T02:10:43.886Z,97284.56
2023-02-01T02:13:11.945Z,97287.06
2023-02-01T02:15:45.690Z,97282.78
2023-02-01T02:18:18.118Z,97292.16
2023-02-01T02:20:55.834Z,97282.91
2023-02-01T02:23:44.666Z,97282.91
2023-02-01T02:26:26.079Z,97273.16
2023-02-01T02:29:11.688Z,97277.31
2023-02-01T02:31:49.908Z,97270.28
2023-02-01T02:34:22.991Z,97258.88
2023-02-01T02:36:58.211Z,97266.53
2023-02-01T02:39:32.611Z,97286.03
2023-02-01T02:42:22.642Z,97279.66
2023-02-01T02:45:10.873Z,97285.38
2023-02-01T02:47:45.937Z,97284.78
2023-02-01T02:50:41.821Z,97278.25
2023-02-01T02:53:30.280Z,97279.22
2023-02-01T02:56:16.127Z,97274.25
2023-02-01T02:59:02.697Z,97263.00
2023-02-01T03:01:48.550Z,97262.13
2023-02-01T03:04:18.625Z,97260.38
2023-02-01T03:06:47.700Z,97271.38
2023-02-01T03:09:20.806Z,97250.66
2023-02-01T03:12:07.305Z,97265.22
2023-02-01T03:14:35.892Z,97258.78
2023-02-01T03:17:06.864Z,97254.41
2023-02-01T03:19:36.947Z,97255.91
2023-02-01T03:22:07.710Z,97257.59
2023-02-01T03:24:37.040Z,97253.19
2023-02-01T03:27:08.103Z,97238.59
2023-02-01T03:29:40.475Z,97242.03
2023-02-01T03:32:08.473Z,97232.91
2023-02-01T03:34:35.967Z,97238.72
2023-02-01T03:37:06.684Z,97236.81
2023-02-01T03:39:37.422Z,97229.69
2023-02-01T03:42:07.134Z,97224.72
2023-02-01T03:44:37.267Z,97224.56
2023-02-01T03:47:08.427Z,97222.81
2023-02-01T03:49:37.853Z,97227.91
2023-02-01T03:52:09.006Z,97219.75
2023-02-01T03:54:37.227Z,97226.28
2023-02-01T03:57:08.972Z,97237.00
2023-02-01T03:59:36.502Z,97242.97
2023-02-01T04:02:04.070Z,97243.31
2023-02-01T04:04:31.687Z,97250.69
2023-02-01T04:06:59.204Z,97248.78
2023-02-01T04:09:28.089Z,97249.75
2023-02-01T04:11:55.691Z,97251.84
2023-02-01T04:14:23.224Z,97245.22
2023-02-01T04:16:50.775Z,97248.34
2023-02-01T04:19:18.467Z,97251.91
2023-02-01T04:21:46.090Z,97253.81
2023-02-01T04:24:13.608Z,97257.97
2023-02-01T04:26:42.492Z,97254.63
2023-02-01T04:29:10.811Z,97242.53
2023-02-01T04:31:38.494Z,97231.38
2023-02-01T04:34:06.136Z,97236.50
2023-02-01T04:36:33.637Z,97229.59
2023-02-01T04:39:01.139Z,97223.44
2023-02-01T04:41:29.182Z,97225.00
2023-02-01T04:43:58.134Z,97212.84
2023-02-01T04:46:25.789Z,97217.97
2023-02-01T04:48:53.467Z,97217.00
2023-02-01T04:51:21.561Z,97214.53
2023-02-01T04:53:49.079Z,97212.25
2023-02-01T04:56:16.596Z,97208.69
2023-02-01T04:58:44.141Z,97213.66
2023-02-01T05:01:13.059Z,97200.84
2023-02-01T05:03:40.569Z,97207.38
2023-02-01T05:06:08.196Z,97214.09
2023-02-01T05:08:37.834Z,97202.59
2023-02-01T05:11:06.522Z,97184.00
2023-02-01T05:13:51.448Z,97191.41
2023-02-01T05:16:20.346Z,97204.59
2023-02-01T05:18:47.889Z,97194.00
2023-02-01T05:21:15.450Z,97199.22
2023-02-01T05:23:57.001Z,97190.19
2023-02-01T05:26:25.776Z,97185.09
2023-02-01T05:28:53.395Z,97184.41
2023-02-01T05:31:23.104Z,97172.34
2023-02-01T05:33:50.770Z,97177.56
2023-02-01T05:36:18.319Z,97172.34
2023-02-01T05:38:45.806Z,97171.53
2023-02-01T05:41:13.340Z,97174.03
2023-02-01T05:43:40.895Z,97159.56
2023-02-01T05:46:08.479Z,97166.56
2023-02-01T05:48:37.340Z,97144.13
2023-02-01T05:51:05.075Z,97149.94
2023-02-01T05:53:32.656Z,97158.75
2023-02-01T05:56:00.204Z,97143.06
2023-02-01T06:00:55.425Z,97145.94
2023-02-01T06:03:23.179Z,97152.81
2023-02-01T06:05:52.036Z,97153.50
2023-02-01T06:08:19.600Z,97167.78
2023-02-01T06:10:47.633Z,97171.00
2023-02-01T06:13:15.149Z,97172.13
2023-02-01T06:15:45.097Z,97180.88
2023-02-01T06:18:12.663Z,97187.19
2023-02-01T06:20:40.410Z,97189.22
2023-02-01T06:23:09.280Z,97192.81
2023-02-01T06:25:38.668Z,97201.06
2023-02-01T06:28:07.097Z,97189.31
2023-02-01T06:30:34.672Z,97205.72
2023-02-01T06:33:02.222Z,97212.84
2023-02-01T06:35:29.765Z,97198.88
2023-02-01T06:37:58.980Z,97193.78
2023-02-01T06:40:27.989Z,97210.03
2023-02-01T06:42:55.537Z,97206.97
2023-02-01T06:45:23.027Z,97198.09
2023-02-01T06:47:50.520Z,97203.88
2023-02-01T06:50:18.256Z,97202.22
2023-02-01T06:52:45.742Z,97208.50
2023-02-01T06:55:13.954Z,97220.69
2023-02-01T06:57:42.792Z,97206.56
2023-02-01T07:00:11.788Z,97190.00
2023-02-01T07:02:40.380Z,97191.03
2023-02-01T07:05:08.286Z,97202.06
2023-02-01T07:07:35.816Z,97204.22
2023-02-01T07:10:03.342Z,97203.75
2023-02-01T07:12:33.431Z,97195.91
2023-02-01T07:15:02.690Z,97197.34
2023-02-01T07:17:30.683Z,97190.38
2023-02-01T07:19:59.667Z,97178.19
2023-02-01T07:22:27.201Z,97182.66
2023-02-01T07:24:54.692Z,97193.34
2023-02-01T07:27:22.289Z,97189.78
2023-02-01T07:29:49.805Z,97192.50
2023-02-01T07:32:19.102Z,97200.78
2023-02-01T07:34:46.913Z,97201.25
2023-02-01T07:37:14.512Z,97200.31
2023-02-01T07:39:42.033Z,97207.66
2023-02-01T07:42:09.552Z,97192.75
2023-02-01T07:44:37.087Z,97196.53
2023-02-01T07:47:04.683Z,97197.63
2023-02-01T07:49:33.574Z,97204.34
2023-02-01T07:52:01.094Z,97196.28
2023-02-01T07:54:28.665Z,97197.00
2023-02-01T07:56:56.164Z,97187.75
2023-02-01T07:59:23.659Z,97187.66
2023-02-01T08:01:50.486Z,97190.28
2023-02-01T08:04:18.030Z,97196.19
2023-02-01T08:06:47.230Z,97197.84
2023-02-01T08:09:14.779Z,97196.41
2023-02-01T08:11:42.530Z,97197.38
2023-02-01T08:14:10.031Z,97198.06
2023-02-01T08:16:38.826Z,97203.28
2023-02-01T08:19:06.439Z,97208.41
2023-02-01T08:21:38.337Z,97210.53
2023-02-01T08:24:08.849Z,97199.97
2023-02-01T08:26:36.518Z,97194.16
2023-02-01T08:29:06.174Z,97192.09
2023-02-01T08:31:33.893Z,97185.09
2023-02-01T08:34:04.598Z,97195.38
2023-02-01T08:36:32.570Z,97185.59
2023-02-01T08:39:00.296Z,97181.44
2023-02-01T08:41:31.290Z,97182.34
2023-02-01T08:43:59.268Z,97191.31
2023-02-01T08:46:26.819Z,97186.56
2023-02-01T08:48:54.625Z,97173.69
2023-02-01T08:51:23.790Z,97164.78
2023-02-01T08:53:51.503Z,97174.03
2023-02-01T08:56:20.423Z,97179.44
2023-02-01T08:58:49.390Z,97168.81
2023-02-01T09:01:18.469Z,97159.75
2023-02-01T09:03:46.709Z,97164.84
2023-02-01T09:06:16.619Z,97168.34
2023-02-01T09:08:44.935Z,97171.06
2023-02-01T09:11:14.770Z,97180.56
2023-02-01T09:13:42.753Z,97194.22
2023-02-01T09:16:11.782Z,97187.34
2023-02-01T09:18:46.191Z,97197.38
2023-02-01T09:21:24.018Z,97199.72
2023-02-01T09:23:52.674Z,97200.69
2023-02-01T09:26:26.498Z,97191.88
2023-02-01T09:28:58.022Z,97198.06
2023-02-01T09:31:27.015Z,97199.63
2023-02-01T09:33:54.598Z,97198.97
2023-02-01T09:36:22.212Z,97190.78
2023-02-01T09:38:53.330Z,97206.78
2023-02-01T09:41:28.767Z,97195.63
2023-02-01T09:44:00.159Z,97192.44
2023-02-01T09:46:30.819Z,97192.88
2023-02-01T09:49:01.145Z,97192.28
2023-02-01T09:51:33.394Z,97190.13
2023-02-01T09:54:05.314Z,97187.19
2023-02-01T09:56:38.270Z,97190.91
2023-02-01T09:59:11.747Z,97195.44
2023-02-01T10:01:40.640Z,97196.97
2023-02-01T10:04:10.940Z,97209.59
2023-02-01T10:06:53.900Z,97203.16
2023-02-01T10:09:32.388Z,97203.97
2023-02-01T10:12:16.889Z,97210.56
2023-02-01T10:14:59.775Z,97200.44
2023-02-01T10:17:39.238Z,97222.00
2023-02-01T10:20:14.229Z,97217.91
2023-02-01T10:25:36.632Z,97212.00
2023-02-01T10:28:06.079Z,97226.75
2023-02-01T10:30:39.734Z,97235.38
2023-02-01T10:33:17.189Z,97248.50
2023-02-01T10:35:46.190Z,97263.31
2023-02-01T10:38:21.660Z,97273.13
2023-02-01T10:40:49.364Z,97271.28
2023-02-01T10:43:16.932Z,97266.88
2023-02-01T10:45:44.908Z,97279.47
2023-02-01T10:48:13.771Z,97296.66
2023-02-01T10:50:47.057Z,97266.19
2023-02-01T10:53:19.379Z,97272.59
2023-02-01T10:55:51.331Z,97273.38
2023-02-01T10:58:20.851Z,97259.13
2023-02-01T11:00:50.997Z,97256.97
2023-02-01T11:03:32.962Z,97264.66
2023-02-01T11:06:00.654Z,97255.03
2023-02-01T11:08:28.350Z,97254.50
2023-02-01T11:11:02.378Z,97258.59
2023-02-01T11:13:32.811Z,97257.22
2023-02-01T11:16:00.667Z,97253.63
2023-02-01T11:18:32.139Z,97248.88
2023-02-01T11:21:00.608Z,97248.88
2023-02-01T11:23:29.618Z,97244.81
2023-02-01T11:25:58.979Z,97234.78
2023-02-01T11:28:29.266Z,97225.41
2023-02-01T11:30:59.166Z,97210.19
2023-02-01T11:33:36.049Z,97214.94
2023-02-01T11:36:09.313Z,97206.72
2023-02-01T11:38:36.943Z,97201.75
2023-02-01T11:41:15.137Z,97196.50
2023-02-01T11:43:57.434Z,97195.28
2023-02-01T11:46:28.953Z,97190.44
2023-02-01T11:48:58.184Z,97170.47
2023-02-01T11:51:36.527Z,97178.19
2023-02-01T11:54:29.600Z,97160.13
2023-02-01T11:57:08.271Z,97159.81
2023-02-01T12:00:01.879Z,97154.88
2023-02-01T12:02:49.391Z,97132.13
2023-02-01T12:05:27.010Z,97140.97
2023-02-01T12:08:06.724Z,97135.44
2023-02-01T12:10:43.549Z,97126.59
2023-02-01T12:13:19.517Z,97123.69
2023-02-01T12:15:54.964Z,97120.13
2023-02-01T12:18:57.159Z,97122.31
2023-02-01T12:21:43.846Z,97114.22
2023-02-01T12:24:29.927Z,97107.16
2023-02-01T12:27:09.043Z,97096.09
2023-02-01T12:29:54.053Z,97088.31
2023-02-01T12:32:28.253Z,97100.63
2023-02-01T12:35:20.827Z,97110.22
2023-02-01T12:38:17.696Z,97083.31
2023-02-01T12:40:58.797Z,97099.72
2023-02-01T12:43:36.313Z,97092.28
2023-02-01T12:46:06.118Z,97097.06
2023-02-01T12:48:36.779Z,97101.13
2023-02-01T12:51:07.718Z,97095.97
2023-02-01T12:53:46.417Z,97098.59
2023-02-01T12:56:20.412Z,97104.06
2023-02-01T12:58:50.540Z,97106.69
2023-02-01T13:01:22.383Z,97109.53
2023-02-01T13:03:56.305Z,97105.75
2023-02-01T13:06:27.556Z,97100.53
2023-02-01T13:09:05.663Z,97093.69
2023-02-01T13:11:36.485Z,97099.59
2023-02-01T13:14:07.217Z,97111.22
2023-02-01T13:16:37.915Z,97108.72
2023-02-01T13:19:16.189Z,97099.25
2023-02-01T13:21:46.623Z,97098.69
2023-02-01T13:24:25.248Z,97102.53
2023-02-01T13:26:55.860Z,97095.09
2023-02-01T13:29:25.913Z,97100.59
2023-02-01T13:32:07.915Z,97098.66
2023-02-01T13:34:58.587Z,97093.44
2023-02-01T13:37:36.192Z,97107.19
2023-02-01T13:40:20.428Z,97129.66
2023-02-01T13:42:51.975Z,97093.03
2023-02-01T13:45:22.739Z,97105.03
2023-02-01T13:47:54.010Z,97105.84
2023-02-01T13:50:27.267Z,97104.19
2023-02-01T13:52:57.066Z,97113.69
2023-02-01T13:55:44.021Z,97104.19
2023-02-01T13:58:22.016Z,97105.28
2023-02-01T14:00:51.992Z,97112.59
2023-02-01T14:03:22.178Z,97115.22
2023-02-01T14:06:18.764Z,97111.75
2023-02-01T14:09:15.014Z,97108.59
2023-02-01T14:11:46.535Z,97109.44
2023-02-01T14:14:48.066Z,97109.84
2023-02-01T14:17:37.032Z,97113.28
2023-02-01T14:20:49.836Z,97110.66
2023-02-01T14:23:26.032Z,97109.84
2023-02-01T14:26:12.331Z,97109.97
2023-02-01T14:28:55.603Z,97120.69
2023-02-01T14:31:50.032Z,97125.44
2023-02-01T14:34:21.099Z,97133.56
2023-02-01T14:36:52.779Z,97121.03
2023-02-01T14:39:27.289Z,97114.16
2023-02-01T14:42:02.172Z,97125.31
2023-02-01T14:44:37.258Z,97127.81
2023-02-01T14:47:07.301Z,97135.75
2023-02-01T14:49:38.169Z,97128.06
2023-02-01T14:52:11.260Z,97113.88
2023-02-01T14:54:39.394Z,97115.25
2023-02-01T14:57:07.049Z,97119.16
2023-02-01T14:59:37.915Z,97106.75
2023-02-01T15:02:21.051Z,97103.19
2023-02-01T15:04:49.148Z,97099.59
2023-02-01T15:07:17.676Z,97097.94
2023-02-01T15:09:46.622Z,97085.56
2023-02-01T15:12:21.338Z,97078.69
2023-02-01T15:15:05.913Z,97087.09
2023-02-01T15:17:35.640Z,97083.25
2023-02-01T15:20:05.045Z,97083.78
2023-02-01T15:22:36.855Z,97072.91
2023-02-01T15:25:04.953Z,97072.22
2023-02-01T15:27:34.077Z,97076.34
2023-02-01T15:30:09.120Z,97080.06
2023-02-01T15:32:39.327Z,97086.00
2023-02-01T15:35:25.428Z,97079.94
2023-02-01T15:37:53.830Z,97081.44
2023-02-01T15:40:23.711Z,97077.34
2023-02-01T15:42:54.163Z,97075.81
2023-02-01T15:45:25.291Z,97081.59
2023-02-01T15:47:55.384Z,97071.13
2023-02-01T15:50:25.326Z,97078.53
2023-02-01T15:52:56.474Z,97081.31
2023-02-01T15:55:26.244Z,97071.81
2023-02-01T15:57:54.372Z,97076.75
2023-02-01T16:00:26.199Z,97076.91
2023-02-01T16:02:55.359Z,97077.03
2023-02-01T16:05:33.220Z,97092.16
2023-02-01T16:08:04.910Z,97078.56
2023-02-01T16:10:32.981Z,97063.38
2023-02-01T16:13:01.294Z,97082.66
2023-02-01T16:15:30.713Z,97074.41
2023-02-01T16:17:58.518Z,97074.28
2023-02-01T16:20:26.184Z,97058.03
2023-02-01T16:22:53.721Z,97071.81
2023-02-01T16:25:21.829Z,97064.38
2023-02-01T16:27:49.813Z,97072.38
2023-02-01T16:30:23.874Z,97077.72
2023-02-01T16:32:55.781Z,97078.28
2023-02-01T16:35:25.550Z,97072.91
2023-02-01T16:37:53.463Z,97085.56
2023-02-01T16:40:22.698Z,97067.53
2023-02-01T16:42:52.509Z,97076.47
2023-02-01T16:45:21.570Z,97077.16
2023-02-01T16:47:53.036Z,97079.50
2023-02-01T16:50:25.246Z,97083.09
2023-02-01T16:52:54.046Z,97071.13
2023-02-01T16:55:23.669Z,97080.63
2023-02-01T16:57:51.675Z,97079.13
2023-02-01T17:00:25.509Z,97089.56
2023-02-01T17:02:55.139Z,97095.50
2023-02-01T17:05:23.492Z,97076.50
2023-02-01T17:07:51.412Z,97093.97
2023-02-01T17:10:34.066Z,97093.97
2023-02-01T17:13:02.314Z,97090.13
2023-02-01T17:15:35.465Z,97097.28
2023-02-01T17:18:04.777Z,97088.63
2023-02-01T17:20:33.801Z,97073.47
2023-02-01T17:23:01.643Z,97080.50
2023-02-01T17:25:31.112Z,97073.06
2023-02-01T17:27:58.663Z,97055.69
2023-02-01T17:30:26.560Z,97063.44
2023-02-01T17:32:55.245Z,97061.78
2023-02-01T17:35:25.443Z,97054.47
2023-02-01T17:37:53.977Z,97053.50
2023-02-01T17:40:21.591Z,97035.72
2023-02-01T17:42:50.061Z,97038.06
2023-02-01T17:45:37.437Z,97035.59
2023-02-01T17:48:06.539Z,97054.75
2023-02-01T17:50:37.539Z,97060.53
2023-02-01T17:53:08.212Z,97047.56
2023-02-01T17:55:37.674Z,97056.25
2023-02-01T17:58:05.595Z,97052.28
2023-02-01T18:00:33.300Z,97051.31
2023-02-01T18:03:01.743Z,97049.50
2023-02-01T18:05:39.691Z,97049.78
2023-02-01T18:08:07.437Z,97050.63
2023-02-01T18:10:35.004Z,97069.91
2023-02-01T18:13:03.045Z,97056.53
2023-02-01T18:15:32.284Z,97062.56
2023-02-01T18:17:59.899Z,97060.41
2023-02-01T18:20:28.530Z,97040.28
2023-02-01T18:22:57.401Z,97024.88
2023-02-01T18:25:27.267Z,97052.69
2023-02-01T18:27:57.287Z,97044.97
2023-02-01T18:30:26.927Z,97039.44
2023-02-01T18:32:54.420Z,97045.53
2023-02-01T18:35:23.442Z,97052.97
2023-02-01T18:37:52.312Z,97038.34
2023-02-01T18:40:23.145Z,97051.03
2023-02-01T18:42:50.805Z,97050.34
2023-02-01T18:45:25.318Z,97053.94
2023-02-01T18:47:53.149Z,97042.09
2023-02-01T18:50:21.308Z,97039.03
2023-02-01T18:52:54.099Z,97038.22
2023-02-01T18:55:23.732Z,97038.91
2023-02-01T18:57:51.568Z,97041.94
2023-02-01T19:00:21.121Z,97045.22
2023-02-01T19:02:49.346Z,97030.38
2023-02-01T19:05:17.254Z,97033.41
2023-02-01T19:07:45.443Z,97036.16
2023-02-01T19:10:14.832Z,97042.75
2023-02-01T19:12:43.874Z,97046.06
2023-02-01T19:15:15.690Z,97036.28
2023-02-01T19:17:44.779Z,97039.31
2023-02-01T19:20:14.486Z,97028.28
2023-02-01T19:22:42.059Z,97046.06
2023-02-01T19:25:11.444Z,97030.91
2023-02-01T19:27:38.954Z,97035.75
2023-02-01T19:30:12.652Z,97040.00
2023-02-01T19:32:40.517Z,97026.25
2023-02-01T19:35:10.641Z,97038.63
2023-02-01T19:37:41.286Z,97018.09
2023-02-01T19:40:11.189Z,97006.13
2023-02-01T19:42:38.792Z,97017.25
2023-02-01T19:45:08.624Z,97016.47
2023-02-01T19:47:36.235Z,97019.63
2023-02-01T19:50:06.924Z,97007.50
2023-02-01T19:52:34.834Z,97036.97
2023-02-01T19:55:02.343Z,97033.13
2023-02-01T19:57:30.426Z,97037.38
2023-02-01T19:59:58.061Z,97025.44
2023-02-01T20:02:28.546Z,97034.78
2023-02-01T20:04:56.162Z,97033.81
2023-02-01T20:07:23.750Z,97040.97
2023-02-01T20:09:51.310Z,97043.75
2023-02-01T20:12:18.913Z,97030.94
2023-02-01T20:14:46.506Z,97037.94
2023-02-01T20:17:15.214Z,97035.72
2023-02-01T20:19:44.451Z,97046.75
2023-02-01T20:22:11.979Z,97047.72
2023-02-01T20:24:39.675Z,97054.19
2023-02-01T20:27:10.094Z,97053.19
2023-02-01T20:29:37.674Z,97060.59
2023-02-01T20:32:05.438Z,97068.28
2023-02-01T20:34:33.247Z,97077.16
2023-02-01T20:37:02.116Z,97061.91
2023-02-01T20:39:30.211Z,97054.34
2023-02-01T20:41:57.862Z,97044.47
2023-02-01T20:44:25.545Z,97054.09
2023-02-01T20:46:53.108Z,97032.38
2023-02-01T20:49:20.811Z,97035.00
2023-02-01T20:51:48.447Z,97038.03
2023-02-01T20:54:17.289Z,97033.09
2023-02-01T20:56:44.798Z,97024.84
2023-02-01T20:59:15.127Z,97026.09
2023-02-01T21:01:52.824Z,97009.72
2023-02-01T21:04:30.092Z,97010.56
2023-02-01T21:06:58.879Z,97017.72
2023-02-01T21:09:29.955Z,96996.09
2023-02-01T21:11:57.496Z,97004.09
2023-02-01T21:14:25.079Z,96985.50
2023-02-01T21:16:52.596Z,97006.13
2023-02-01T21:19:20.227Z,97006.81
2023-02-01T21:21:47.728Z,97003.53
2023-02-01T21:24:15.279Z,96987.94
2023-02-01T21:26:44.110Z,96999.09
2023-02-01T21:29:13.226Z,97006.16
2023-02-01T21:31:42.022Z,96996.09
2023-02-01T21:34:09.814Z,96996.50
2023-02-01T21:36:37.532Z,97002.00
2023-02-01T21:39:06.435Z,97011.94
2023-02-01T21:41:54.208Z,96999.53
2023-02-01T21:44:23.560Z,97001.72
2023-02-01T21:46:51.088Z,97016.06
2023-02-01T21:49:19.051Z,97017.28
2023-02-01T21:51:46.730Z,97024.31
2023-02-01T21:54:14.334Z,97020.75
2023-02-01T21:56:42.176Z,97026.09
2023-02-01T21:59:10.212Z,97028.59
2023-02-01T22:01:39.966Z,97025.53
2023-02-01T22:04:07.774Z,97036.16
2023-02-01T22:06:37.281Z,97037.00
2023-02-01T22:09:06.022Z,97039.16
2023-02-01T22:11:33.751Z,97038.47
2023-02-01T22:14:01.275Z,97038.63
2023-02-01T22:16:30.871Z,97041.59
2023-02-01T22:19:00.426Z,97041.34
2023-02-01T22:21:28.176Z,97043.09
2023-02-01T22:23:58.846Z,97034.97
2023-02-01T22:26:27.345Z,97039.09
2023-02-01T22:28:55.283Z,97046.72
2023-02-01T22:31:23.594Z,97043.44
2023-02-01T22:33:51.613Z,97071.47
2023-02-01T22:36:20.753Z,97060.59
2023-02-01T22:38:48.442Z,97075.53
2023-02-01T22:41:16.090Z,97083.75
2023-02-01T22:43:43.859Z,97068.47
2023-02-01T22:46:14.102Z,97073.00
2023-02-01T22:48:43.204Z,97063.06
2023-02-01T22:51:14.986Z,97073.44
2023-02-01T22:53:43.936Z,97085.00
2023-02-01T22:56:13.541Z,97071.34
2023-02-01T22:58:41.147Z,97080.13
2023-02-01T23:01:09.548Z,97089.19
2023-02-01T23:03:37.257Z,97083.97
2023-02-01T23:06:05.677Z,97076.84
2023-02-01T23:08:35.227Z,97080.66
2023-02-01T23:11:06.436Z,97073.63
2023-02-01T23:13:34.433Z,97065.69
2023-02-01T23:16:05.931Z,97073.53
2023-02-01T23:18:33.510Z,97075.28
2023-02-01T23:21:04.540Z,97074.59
2023-02-01T23:23:32.158Z,97071.59
2023-02-01T23:25:59.697Z,97068.63
2023-02-01T23:28:29.319Z,97047.59
2023-02-01T23:30:57.103Z,97051.47
2023-02-01T23:33:25.120Z,97054.38
2023-02-01T23:35:56.953Z,97047.00
2023-02-01T23:38:24.644Z,97042.84
2023-02-01T23:40:52.753Z,97039.84
2023-02-01T23:43:38.139Z,97040.81
2023-02-01T23:46:07.108Z,97024.16
2023-02-01T23:48:34.613Z,97019.25
2023-02-01T23:51:02.128Z,97020.09
2023-02-01T23:53:29.632Z,97009.94
2023-02-01T23:55:57.366Z,97003.09
2023-02-01T23:58:25.064Z,96994.13
